createdAt,value
2018-02-27T00:01:52.411Z,81.47
2018-02-27T00:04:18.772Z,77.46
2018-02-27T00:06:45.137Z,78.67
2018-02-27T00:09:11.489Z,81.22
2018-02-27T00:11:37.841Z,79.93
2018-02-27T00:14:04.210Z,79.69
2018-02-27T00:16:30.628Z,80.84
2018-02-27T00:18:57.170Z,76.88
2018-02-27T00:21:23.522Z,78.12
2018-02-27T00:23:49.911Z,77.72
2018-02-27T00:26:16.250Z,77.48
2018-02-27T00:28:42.616Z,75.05
2018-02-27T00:31:09.013Z,75.92
2018-02-27T00:33:35.416Z,73.70
2018-02-27T00:36:01.759Z,75.43
2018-02-27T00:38:28.166Z,72.82
2018-02-27T00:40:54.539Z,73.03
2018-02-27T00:43:20.932Z,72.91
2018-02-27T00:45:47.290Z,73.24
2018-02-27T00:48:13.650Z,72.24
2018-02-27T00:50:40.004Z,77.23
2018-02-27T00:53:06.359Z,78.41
2018-02-27T00:55:32.722Z,75.17
2018-02-27T00:57:59.062Z,73.07
2018-02-27T01:00:25.437Z,71.95
2018-02-27T01:02:51.781Z,71.60
2018-02-27T01:05:18.134Z,72.71
2018-02-27T01:07:44.478Z,72.05
2018-02-27T01:10:10.859Z,74.75
2018-02-27T01:12:37.249Z,74.82
2018-02-27T01:15:03.636Z,73.50
2018-02-27T01:17:29.981Z,73.56
2018-02-27T01:20:03.302Z,71.39
2018-02-27T01:22:29.673Z,70.82
2018-02-27T01:24:56.037Z,70.94
2018-02-27T01:27:22.394Z,69.86
2018-02-27T01:29:48.772Z,70.08
2018-02-27T01:32:15.134Z,73.25
2018-02-27T01:34:41.513Z,70.27
2018-02-27T01:37:07.883Z,70.31
2018-02-27T01:39:34.248Z,72.00
2018-02-27T01:42:00.652Z,71.61
2018-02-27T01:44:27.014Z,69.74
2018-02-27T01:46:53.411Z,70.79
2018-02-27T01:49:19.759Z,70.37
2018-02-27T01:51:46.138Z,69.28
2018-02-27T01:54:12.690Z,69.33
2018-02-27T01:56:39.049Z,68.43
2018-02-27T01:59:05.414Z,68.72
2018-02-27T02:01:31.762Z,70.40
2018-02-27T02:03:58.116Z,71.60
2018-02-27T02:06:24.481Z,71.16
2018-02-27T02:08:50.834Z,71.58
2018-02-27T02:11:17.216Z,71.06
2018-02-27T02:13:43.585Z,70.46
2018-02-27T02:16:09.978Z,69.24
2018-02-27T02:18:36.363Z,72.64
2018-02-27T02:21:02.767Z,70.52
2018-02-27T02:23:29.104Z,68.50
2018-02-27T02:25:55.474Z,67.99
2018-02-27T02:28:21.833Z,68.72
2018-02-27T02:30:48.197Z,67.76
2018-02-27T02:33:14.556Z,67.99
2018-02-27T02:35:40.913Z,67.93
2018-02-27T02:38:07.341Z,67.79
2018-02-27T02:40:33.720Z,69.67
2018-02-27T02:43:00.094Z,68.36
2018-02-27T02:45:26.457Z,66.05
2018-02-27T02:47:52.826Z,66.52
2018-02-27T02:50:19.183Z,67.25
2018-02-27T02:52:45.557Z,68.43
2018-02-27T02:55:12.011Z,67.25
2018-02-27T02:57:38.374Z,68.45
2018-02-27T03:00:04.753Z,67.47
2018-02-27T03:02:31.158Z,66.16
2018-02-27T03:04:57.513Z,68.73
2018-02-27T03:07:23.896Z,73.47
2018-02-27T03:09:50.258Z,69.87
2018-02-27T03:12:16.605Z,72.05
2018-02-27T03:14:42.963Z,71.63
2018-02-27T03:17:09.315Z,69.27
2018-02-27T03:19:35.714Z,69.28
2018-02-27T03:22:02.099Z,68.40
2018-02-27T03:24:28.502Z,67.91
2018-02-27T03:26:54.841Z,66.24
2018-02-27T03:29:21.194Z,66.76
2018-02-27T03:31:47.558Z,67.32
2018-02-27T03:34:13.926Z,66.82
2018-02-27T03:36:40.303Z,66.25
2018-02-27T03:39:06.653Z,70.93
2018-02-27T03:41:33.013Z,67.79
2018-02-27T03:43:59.373Z,65.77
2018-02-27T03:46:25.769Z,63.93
2018-02-27T03:48:52.246Z,69.34
2018-02-27T03:51:18.686Z,66.17
2018-02-27T03:53:45.086Z,65.70
2018-02-27T03:56:11.449Z,68.12
2018-02-27T03:58:37.853Z,71.69
2018-02-27T04:01:04.202Z,72.31
2018-02-27T04:03:30.589Z,68.75
2018-02-27T04:05:56.942Z,68.62
2018-02-27T04:08:23.314Z,67.32
2018-02-27T04:10:49.695Z,65.63
2018-02-27T04:13:16.066Z,66.02
2018-02-27T04:15:42.438Z,65.18
2018-02-27T04:18:08.871Z,65.78
2018-02-27T04:20:35.226Z,65.31
2018-02-27T04:23:01.610Z,69.13
2018-02-27T04:25:27.960Z,68.51
2018-02-27T04:27:54.314Z,65.13
2018-02-27T04:30:20.752Z,65.75
2018-02-27T04:32:47.114Z,65.97
2018-02-27T04:35:13.489Z,65.71
2018-02-27T04:37:39.858Z,66.71
2018-02-27T04:40:06.213Z,69.65
2018-02-27T04:42:32.605Z,68.33
2018-02-27T04:44:58.978Z,66.31
2018-02-27T04:47:25.326Z,66.42
2018-02-27T04:49:51.681Z,65.85
2018-02-27T04:52:18.059Z,65.78
2018-02-27T04:54:44.405Z,65.27
2018-02-27T04:57:10.826Z,65.00
2018-02-27T04:59:37.233Z,64.90
2018-02-27T05:02:03.596Z,69.82
2018-02-27T05:04:29.950Z,67.46
2018-02-27T05:06:56.330Z,66.49
2018-02-27T05:09:22.680Z,66.53
2018-02-27T05:11:49.029Z,66.05
2018-02-27T05:14:15.400Z,67.04
2018-02-27T05:16:41.774Z,67.31
2018-02-27T05:19:08.130Z,67.54
2018-02-27T05:21:34.494Z,67.79
2018-02-27T05:24:00.860Z,68.73
2018-02-27T05:26:27.235Z,71.72
2018-02-27T05:28:53.593Z,69.45
2018-02-27T05:31:19.954Z,68.91
2018-02-27T05:33:46.310Z,69.17
2018-02-27T05:36:12.682Z,68.31
2018-02-27T05:38:39.067Z,68.57
2018-02-27T05:41:05.452Z,69.51
2018-02-27T05:43:31.832Z,70.61
2018-02-27T05:45:58.178Z,69.22
2018-02-27T05:48:24.702Z,70.00
2018-02-27T05:50:51.177Z,69.17
2018-02-27T05:53:17.554Z,70.68
2018-02-27T05:55:43.910Z,69.51
2018-02-27T05:58:10.317Z,72.59
2018-02-27T06:00:36.660Z,71.35
2018-02-27T06:03:03.034Z,72.33
2018-02-27T06:05:29.392Z,71.36
2018-02-27T06:07:55.782Z,70.25
2018-02-27T06:10:22.302Z,68.63
2018-02-27T06:12:48.692Z,68.83
2018-02-27T06:15:15.206Z,69.17
2018-02-27T06:17:42.271Z,68.64
2018-02-27T06:20:08.638Z,69.18
2018-02-27T06:22:35.026Z,67.71
2018-02-27T06:25:01.398Z,67.41
2018-02-27T06:27:27.746Z,67.58
2018-02-27T06:29:54.109Z,68.85
2018-02-27T06:32:20.485Z,69.32
2018-02-27T06:34:46.957Z,69.38
2018-02-27T06:37:13.332Z,69.27
2018-02-27T06:39:39.707Z,71.16
2018-02-27T06:42:06.241Z,70.25
2018-02-27T06:44:32.790Z,69.51
2018-02-27T06:46:59.153Z,69.75
2018-02-27T06:49:25.519Z,72.14
2018-02-27T06:51:51.926Z,69.75
2018-02-27T06:54:18.299Z,71.39
2018-02-27T06:56:44.665Z,69.92
2018-02-27T06:59:11.066Z,70.86
2018-02-27T07:01:37.409Z,75.33
2018-02-27T07:04:03.774Z,75.14
2018-02-27T07:06:30.181Z,70.57
2018-02-27T07:08:56.552Z,77.94
2018-02-27T07:11:22.919Z,76.62
2018-02-27T07:13:49.292Z,73.97
2018-02-27T07:16:15.690Z,75.55
2018-02-27T07:18:42.057Z,73.49
2018-02-27T07:21:08.417Z,70.87
2018-02-27T07:23:34.793Z,69.61
2018-02-27T07:26:01.182Z,69.32
2018-02-27T07:28:27.538Z,75.02
2018-02-27T07:30:53.901Z,75.65
2018-02-27T07:33:20.250Z,76.48
2018-02-27T07:35:46.603Z,75.20
2018-02-27T07:38:12.970Z,71.46
2018-02-27T07:40:39.317Z,77.28
2018-02-27T07:43:05.677Z,77.02
2018-02-27T07:45:32.045Z,75.74
2018-02-27T07:47:58.407Z,72.76
2018-02-27T07:50:24.765Z,75.47
2018-02-27T07:52:51.122Z,75.94
2018-02-27T07:55:17.485Z,72.75
2018-02-27T07:57:43.847Z,76.44
2018-02-27T08:00:10.201Z,75.45
2018-02-27T08:02:36.589Z,74.00
2018-02-27T08:05:02.977Z,78.26
2018-02-27T08:07:29.389Z,77.37
2018-02-27T08:09:55.758Z,73.21
2018-02-27T08:12:22.120Z,74.15
2018-02-27T08:14:48.522Z,78.90
2018-02-27T08:17:14.879Z,79.63
2018-02-27T08:19:41.227Z,76.31
2018-02-27T08:22:07.698Z,72.39
2018-02-27T08:24:34.068Z,70.44
2018-02-27T08:27:00.431Z,73.11
2018-02-27T08:29:26.777Z,74.58
2018-02-27T08:31:53.132Z,75.05
2018-02-27T08:34:19.609Z,71.10
2018-02-27T08:36:46.109Z,71.87
2018-02-27T08:39:12.461Z,71.01
2018-02-27T08:41:38.821Z,70.71
2018-02-27T08:44:05.173Z,72.95
2018-02-27T08:46:31.529Z,75.86
2018-02-27T08:48:57.934Z,73.37
2018-02-27T08:51:25.109Z,75.57
2018-02-27T08:53:51.565Z,74.57
2018-02-27T08:56:17.914Z,76.44
2018-02-27T08:58:44.385Z,74.71
2018-02-27T09:01:10.916Z,70.60
2018-02-27T09:03:37.394Z,72.09
2018-02-27T09:06:03.832Z,76.13
2018-02-27T09:08:30.194Z,74.66
2018-02-27T09:10:56.637Z,71.64
2018-02-27T09:13:22.995Z,72.39
2018-02-27T09:15:50.293Z,71.58
2018-02-27T09:18:16.907Z,71.68
2018-02-27T09:20:45.035Z,74.47
2018-02-27T09:23:19.466Z,77.74
2018-02-27T09:25:45.855Z,72.01
2018-02-27T09:28:12.220Z,71.64
2018-02-27T09:30:38.610Z,75.37
2018-02-27T09:33:04.951Z,74.75
2018-02-27T09:35:31.300Z,72.86
2018-02-27T09:37:57.665Z,70.82
2018-02-27T09:40:25.790Z,70.12
2018-02-27T09:42:53.337Z,73.44
2018-02-27T09:45:19.855Z,72.06
2018-02-27T09:47:46.235Z,74.05
2018-02-27T09:50:15.110Z,68.97
2018-02-27T09:52:42.038Z,68.36
2018-02-27T09:55:08.506Z,68.60
2018-02-27T09:57:34.942Z,72.70
2018-02-27T10:00:01.374Z,71.09
2018-02-27T10:02:27.740Z,68.18
2018-02-27T10:04:54.157Z,67.52
2018-02-27T10:07:20.531Z,73.50
2018-02-27T10:09:46.882Z,70.14
2018-02-27T10:12:13.233Z,73.69
2018-02-27T10:14:39.650Z,75.03
2018-02-27T10:17:05.982Z,76.24
2018-02-27T10:19:32.353Z,73.08
2018-02-27T10:21:58.753Z,70.74
2018-02-27T10:24:25.110Z,72.88
2018-02-27T10:26:51.462Z,73.20
2018-02-27T10:29:17.853Z,67.22
2018-02-27T10:31:44.210Z,76.69
2018-02-27T10:34:10.570Z,74.79
2018-02-27T10:36:36.939Z,76.49
2018-02-27T10:39:03.369Z,72.66
2018-02-27T10:41:29.757Z,70.15
2018-02-27T10:43:56.111Z,68.77
2018-02-27T10:46:22.538Z,69.19
2018-02-27T10:48:48.951Z,67.67
2018-02-27T10:51:15.342Z,67.24
2018-02-27T10:53:41.850Z,70.46
2018-02-27T10:56:08.238Z,68.33
2018-02-27T10:58:34.593Z,70.81
2018-02-27T11:01:01.922Z,76.07
2018-02-27T11:03:28.269Z,75.13
2018-02-27T11:05:57.669Z,71.15
2018-02-27T11:08:27.596Z,68.54
2018-02-27T11:10:58.541Z,74.22
2018-02-27T11:13:28.272Z,73.55
2018-02-27T11:15:59.299Z,68.28
2018-02-27T11:18:27.900Z,69.63
2018-02-27T11:20:54.273Z,75.12
2018-02-27T11:23:20.744Z,74.74
2018-02-27T11:25:47.109Z,76.32
2018-02-27T11:28:13.485Z,69.25
2018-02-27T11:30:39.836Z,72.81
2018-02-27T11:33:06.227Z,67.87
2018-02-27T11:35:32.608Z,66.27
2018-02-27T11:37:58.973Z,68.75
2018-02-27T11:40:25.357Z,70.79
2018-02-27T11:42:51.760Z,70.85
2018-02-27T11:45:18.134Z,72.07
2018-02-27T11:47:44.502Z,73.17
2018-02-27T11:50:10.886Z,70.66
2018-02-27T11:52:37.454Z,69.82
2018-02-27T11:55:03.825Z,70.97
2018-02-27T11:57:30.185Z,67.57
2018-02-27T11:59:56.541Z,69.11
2018-02-27T12:02:22.928Z,65.13
2018-02-27T12:04:49.279Z,65.34
2018-02-27T12:07:15.663Z,64.81
2018-02-27T12:09:42.077Z,66.37
2018-02-27T12:12:08.454Z,68.12
2018-02-27T12:14:34.833Z,63.77
2018-02-27T12:17:01.185Z,70.46
2018-02-27T12:19:27.546Z,67.64
2018-02-27T12:21:54.140Z,63.74
2018-02-27T12:24:20.511Z,65.61
2018-02-27T12:26:46.918Z,67.01
2018-02-27T12:29:13.297Z,70.91
2018-02-27T12:31:39.749Z,67.16
2018-02-27T12:34:06.106Z,70.63
2018-02-27T12:36:32.514Z,68.27
2018-02-27T12:38:58.871Z,69.52
2018-02-27T12:41:25.286Z,64.32
2018-02-27T12:43:51.671Z,73.00
2018-02-27T12:46:18.035Z,73.91
2018-02-27T12:48:44.386Z,70.23
2018-02-27T12:51:10.746Z,67.03
2018-02-27T12:53:37.230Z,63.44
2018-02-27T12:56:03.590Z,68.96
2018-02-27T12:58:29.967Z,68.96
2018-02-27T13:00:56.328Z,69.98
2018-02-27T13:03:22.694Z,70.80
2018-02-27T13:05:49.101Z,70.06
2018-02-27T13:08:15.471Z,66.51
2018-02-27T13:10:59.625Z,63.00
2018-02-27T13:13:31.166Z,65.45
2018-02-27T13:16:14.542Z,65.07
2018-02-27T13:18:52.952Z,61.53
2018-02-27T13:21:19.389Z,62.77
2018-02-27T13:23:45.782Z,62.46
2018-02-27T13:26:14.462Z,68.63
2018-02-27T13:28:44.877Z,62.35
2018-02-27T13:31:26.989Z,66.68
2018-02-27T13:34:04.183Z,68.53
2018-02-27T13:36:31.682Z,67.99
2018-02-27T13:39:00.071Z,67.28
2018-02-27T13:41:34.363Z,66.39
2018-02-27T13:44:04.073Z,70.45
2018-02-27T13:46:40.607Z,67.74
2018-02-27T13:49:11.743Z,73.08
2018-02-27T13:51:46.105Z,69.95
2018-02-27T13:54:15.302Z,68.26
2018-02-27T13:56:51.740Z,62.73
2018-02-27T13:59:21.294Z,67.94
2018-02-27T14:02:03.829Z,68.52
2018-02-27T14:04:48.702Z,66.07
2018-02-27T14:07:15.126Z,66.89
2018-02-27T14:09:55.309Z,67.04
2018-02-27T14:12:22.821Z,66.71
2018-02-27T14:14:50.347Z,65.41
2018-02-27T14:17:17.113Z,63.28
2018-02-27T14:19:44.366Z,63.59
2018-02-27T14:22:10.758Z,63.18
2018-02-27T14:24:37.234Z,66.28
2018-02-27T14:27:06.843Z,72.73
2018-02-27T14:29:34.173Z,75.48
2018-02-27T14:32:00.533Z,71.26
2018-02-27T14:34:26.899Z,67.14
2018-02-27T14:36:53.408Z,70.23
2018-02-27T14:39:19.825Z,68.80
2018-02-27T14:41:46.177Z,66.88
2018-02-27T14:44:12.546Z,73.86
2018-02-27T14:46:38.962Z,76.60
2018-02-27T14:49:05.389Z,74.63
2018-02-27T14:51:31.784Z,70.72
2018-02-27T14:53:58.186Z,68.17
2018-02-27T14:56:24.614Z,73.02
2018-02-27T14:58:50.982Z,69.54
2018-02-27T15:01:17.334Z,69.23
2018-02-27T15:03:43.708Z,66.38
2018-02-27T15:06:10.182Z,66.86
2018-02-27T15:08:36.638Z,69.05
2018-02-27T15:11:03.006Z,64.26
2018-02-27T15:13:29.353Z,62.67
2018-02-27T15:15:55.737Z,62.48
2018-02-27T15:18:22.094Z,62.57
2018-02-27T15:20:48.445Z,63.70
2018-02-27T15:23:14.809Z,66.09
2018-02-27T15:25:41.159Z,64.63
2018-02-27T15:28:07.524Z,64.55
2018-02-27T15:30:33.897Z,63.68
2018-02-27T15:33:00.281Z,64.13
2018-02-27T15:35:26.682Z,70.17
2018-02-27T15:37:53.061Z,66.12
2018-02-27T15:40:19.425Z,64.41
2018-02-27T15:42:45.789Z,66.13
2018-02-27T15:45:12.164Z,69.84
2018-02-27T15:47:38.537Z,64.99
2018-02-27T15:50:04.882Z,63.81
2018-02-27T15:52:31.292Z,64.26
2018-02-27T15:54:57.650Z,64.65
2018-02-27T15:57:24.006Z,67.11
2018-02-27T15:59:50.553Z,65.41
2018-02-27T16:02:17.089Z,66.02
2018-02-27T16:04:43.498Z,67.22
2018-02-27T16:07:09.942Z,66.62
2018-02-27T16:09:36.293Z,65.38
2018-02-27T16:12:02.654Z,65.87
2018-02-27T16:14:29.022Z,65.17
2018-02-27T16:16:55.406Z,65.84
2018-02-27T16:19:22.125Z,68.47
2018-02-27T16:21:48.534Z,67.96
2018-02-27T16:24:14.939Z,67.89
2018-02-27T16:26:41.371Z,71.40
2018-02-27T16:29:07.757Z,67.06
2018-02-27T16:31:34.199Z,69.86
2018-02-27T16:34:00.559Z,74.42
2018-02-27T16:36:26.921Z,72.04
2018-02-27T16:38:53.353Z,67.41
2018-02-27T16:41:19.744Z,65.32
2018-02-27T16:43:46.137Z,69.14
2018-02-27T16:46:12.510Z,68.23
2018-02-27T16:48:38.897Z,67.28
2018-02-27T16:51:05.271Z,67.68
2018-02-27T16:53:31.678Z,66.93
2018-02-27T16:55:58.090Z,67.27
2018-02-27T16:58:24.499Z,67.64
2018-02-27T17:00:50.902Z,66.20
2018-02-27T17:03:17.264Z,75.44
2018-02-27T17:05:43.647Z,70.62
2018-02-27T17:08:10.039Z,68.94
2018-02-27T17:10:36.426Z,71.13
2018-02-27T17:13:02.821Z,68.49
2018-02-27T17:15:29.353Z,67.59
2018-02-27T17:17:55.710Z,67.40
2018-02-27T17:20:22.160Z,67.55
2018-02-27T17:22:48.530Z,67.92
2018-02-27T17:25:14.984Z,67.62
2018-02-27T17:27:41.358Z,71.06
2018-02-27T17:30:07.765Z,68.94
2018-02-27T17:32:34.164Z,67.75
2018-02-27T17:35:07.962Z,66.50
2018-02-27T17:37:37.844Z,67.28
2018-02-27T17:40:07.814Z,67.68
2018-02-27T17:42:35.370Z,73.04
2018-02-27T17:45:02.539Z,71.10
2018-02-27T17:47:28.899Z,69.60
2018-02-27T17:49:55.278Z,68.92
2018-02-27T17:52:21.730Z,68.54
2018-02-27T17:54:48.076Z,67.90
2018-02-27T17:57:14.521Z,67.03
2018-02-27T17:59:40.922Z,68.43
2018-02-27T18:02:07.275Z,69.21
2018-02-27T18:04:33.650Z,69.16
2018-02-27T18:07:00.042Z,68.12
2018-02-27T18:09:26.418Z,68.22
2018-02-27T18:11:52.775Z,67.79
2018-02-27T18:14:19.139Z,67.22
2018-02-27T18:16:45.541Z,67.59
2018-02-27T18:19:11.945Z,67.75
2018-02-27T18:21:38.335Z,71.77
2018-02-27T18:24:04.695Z,71.12
2018-02-27T18:26:31.057Z,75.98
2018-02-27T18:28:57.447Z,73.67
2018-02-27T18:31:23.862Z,72.69
2018-02-27T18:33:50.312Z,76.82
2018-02-27T18:36:16.721Z,73.74
2018-02-27T18:38:43.115Z,76.91
2018-02-27T18:41:09.489Z,77.38
2018-02-27T18:43:35.843Z,76.58
2018-02-27T18:46:05.255Z,77.42
2018-02-27T18:48:35.702Z,73.99
2018-02-27T18:51:17.277Z,71.63
2018-02-27T18:54:00.746Z,73.73
2018-02-27T18:56:34.519Z,68.38
2018-02-27T18:59:23.253Z,67.62
2018-02-27T19:02:15.038Z,68.18
2018-02-27T19:04:41.470Z,67.43
2018-02-27T19:07:09.614Z,68.91
2018-02-27T19:09:40.258Z,71.59
2018-02-27T19:12:09.890Z,74.62
2018-02-27T19:14:37.351Z,75.71
2018-02-27T19:17:08.437Z,73.06
2018-02-27T19:19:36.826Z,73.98
2018-02-27T19:22:05.349Z,69.23
2018-02-27T19:24:33.597Z,71.40
2018-02-27T19:27:01.811Z,69.93
2018-02-27T19:29:29.102Z,68.06
2018-02-27T19:31:55.581Z,67.11
2018-02-27T19:34:25.766Z,67.51
2018-02-27T19:36:52.183Z,69.69
2018-02-27T19:39:18.632Z,69.66
2018-02-27T19:41:45.863Z,72.06
2018-02-27T19:44:14.142Z,71.92
2018-02-27T19:46:40.507Z,71.37
2018-02-27T19:49:06.863Z,70.53
2018-02-27T19:51:33.401Z,72.05
2018-02-27T19:53:59.869Z,69.92
2018-02-27T19:56:26.245Z,69.24
2018-02-27T19:58:52.618Z,70.63
2018-02-27T20:01:18.983Z,69.36
2018-02-27T20:03:45.350Z,70.25
2018-02-27T20:06:11.780Z,70.67
2018-02-27T20:08:38.184Z,71.82
2018-02-27T20:11:04.622Z,75.38
2018-02-27T20:13:31.015Z,71.87
2018-02-27T20:15:57.373Z,73.03
2018-02-27T20:18:24.723Z,71.29
2018-02-27T20:20:51.163Z,71.56
2018-02-27T20:36:34.237Z,77.28
2018-02-27T20:39:06.715Z,73.54
2018-02-27T20:41:33.083Z,73.63
2018-02-27T20:43:59.530Z,71.57
2018-02-27T20:46:25.892Z,72.38
2018-02-27T20:48:52.278Z,74.48
2018-02-27T20:51:18.808Z,74.01
2018-02-27T20:53:45.215Z,73.50
2018-02-27T20:56:11.604Z,71.83
2018-02-27T20:58:37.976Z,71.29
2018-02-27T21:01:04.433Z,74.45
2018-02-27T21:03:30.888Z,73.45
2018-02-27T21:05:57.235Z,72.95
2018-02-27T21:08:23.649Z,76.23
2018-02-27T21:10:50.017Z,74.92
2018-02-27T21:13:18.407Z,75.63
2018-02-27T21:15:44.826Z,73.57
2018-02-27T21:18:11.212Z,72.88
2018-02-27T21:20:37.570Z,76.31
2018-02-27T21:23:03.984Z,75.45
2018-02-27T21:25:30.469Z,75.28
2018-02-27T21:27:57.168Z,77.20
2018-02-27T21:30:23.591Z,75.58
2018-02-27T21:32:49.945Z,75.19
2018-02-27T21:35:16.340Z,76.35
2018-02-27T21:37:42.772Z,74.38
2018-02-27T21:40:09.377Z,73.46
2018-02-27T21:42:35.753Z,78.05
2018-02-27T21:45:15.363Z,78.44
2018-02-27T21:47:41.841Z,76.87
2018-02-27T21:50:08.358Z,77.68
2018-02-27T21:52:34.774Z,77.31
2018-02-27T21:55:01.141Z,76.74
2018-02-27T21:57:27.502Z,76.69
2018-02-27T21:59:53.940Z,74.78
2018-02-27T22:02:20.337Z,74.73
2018-02-27T22:04:46.705Z,76.68
2018-02-27T22:07:13.086Z,76.67
2018-02-27T22:09:39.444Z,76.44
2018-02-27T22:12:05.802Z,76.83
2018-02-27T22:14:32.173Z,75.99
2018-02-27T22:16:58.547Z,76.75
2018-02-27T22:19:24.917Z,77.06
2018-02-27T22:21:51.318Z,80.86
2018-02-27T22:24:17.658Z,79.22
2018-02-27T22:26:44.135Z,77.36
2018-02-27T22:29:10.522Z,77.92
2018-02-27T22:31:36.967Z,76.12
2018-02-27T22:34:03.394Z,76.02
2018-02-27T22:36:29.801Z,78.95
2018-02-27T22:38:56.172Z,79.68
2018-02-27T22:41:22.670Z,79.19
2018-02-27T22:43:49.016Z,78.47
2018-02-27T22:46:15.412Z,78.89
2018-02-27T22:48:41.798Z,76.86
2018-02-27T22:51:08.159Z,79.30
2018-02-27T22:53:34.521Z,79.70
2018-02-27T22:56:00.882Z,77.27
2018-02-27T22:58:27.240Z,77.67
2018-02-27T23:00:53.617Z,77.15
2018-02-27T23:03:19.994Z,76.39
2018-02-27T23:05:46.376Z,77.55
2018-02-27T23:08:12.720Z,77.50
2018-02-27T23:10:39.120Z,77.02
2018-02-27T23:13:05.464Z,76.39
2018-02-27T23:15:31.824Z,76.24
2018-02-27T23:20:32.887Z,77.79
2018-02-27T23:23:00.654Z,79.92
2018-02-27T23:38:50.178Z,76.77
2018-02-27T23:41:18.316Z,77.15
2018-02-27T23:43:46.968Z,76.46
2018-02-27T23:46:17.238Z,78.45
2018-02-27T23:48:45.212Z,77.60
2018-02-27T23:51:13.209Z,78.67
2018-02-27T23:53:40.969Z,77.43
2018-02-27T23:56:08.012Z,80.06
2018-02-27T23:58:34.844Z,80.91
